< < Back
Terminal Aerodrome Forecast


Current Version              Previous Versions:   1  2  3  4  5  6  7  8  9  

Terminal Aerodrome Forecast

346
FTUS44 KHUN 051723
TAFHSV
TAF
KHSV 051723Z 0518/0618 35004KT P6SM FEW250
     FM060000 VRB03KT P6SM FEW250=

Latest METAR

670
SAUS80 KWBC 060900 RRC
MTRHSV
METAR KHSV 060853Z AUTO 33004KT 10SM CLR M01/M04 A3037 RMK AO2 SLP287
T10061039 55002


USA.gov is the U.S. government's official web portal to all federal, state and local government web resources and services.